createdAt,value
2023-03-21T00:00:28.929Z,101681.44
2023-03-21T00:02:55.473Z,101677.59
2023-03-21T00:05:22.474Z,101675.22
2023-03-21T00:07:49.048Z,101674.44
2023-03-21T00:10:23.903Z,101677.94
2023-03-21T00:12:58.568Z,101664.72
2023-03-21T00:15:30.571Z,101668.53
2023-03-21T00:18:04.346Z,101672.31
2023-03-21T00:20:34.349Z,101675.03
2023-03-21T00:23:01.884Z,101658.00
2023-03-21T00:25:28.439Z,101661.03
2023-03-21T00:28:07.581Z,101661.81
2023-03-21T00:30:34.995Z,101658.00
2023-03-21T00:33:05.960Z,101657.53
2023-03-21T00:36:02.613Z,101649.59
2023-03-21T00:38:26.222Z,101651.00
2023-03-21T00:40:52.912Z,101651.00
2023-03-21T00:43:23.316Z,101644.78
2023-03-21T00:45:51.293Z,101648.81
2023-03-21T00:48:19.151Z,101639.06
2023-03-21T00:50:47.141Z,101647.50
2023-03-21T00:53:15.564Z,101646.38
2023-03-21T00:55:42.031Z,101634.28
2023-03-21T00:58:08.524Z,101633.97
2023-03-21T01:00:37.207Z,101629.66
2023-03-21T01:03:21.479Z,101626.97
2023-03-21T01:06:05.979Z,101626.97
2023-03-21T01:08:50.399Z,101612.63
2023-03-21T01:11:20.550Z,101618.38
2023-03-21T01:13:54.632Z,101610.56
2023-03-21T01:16:22.885Z,101610.56
2023-03-21T01:18:49.665Z,101608.66
2023-03-21T01:21:17.164Z,101611.69
2023-03-21T01:23:44.603Z,101612.47
2023-03-21T01:26:12.407Z,101603.25
2023-03-21T01:28:40.590Z,101603.25
2023-03-21T01:31:07.678Z,101613.88
2023-03-21T01:33:34.729Z,101604.66
2023-03-21T01:36:12.160Z,101602.78
2023-03-21T01:38:39.433Z,101590.03
2023-03-21T01:41:17.080Z,101594.66
2023-03-21T01:43:45.945Z,101587.63
2023-03-21T01:46:47.845Z,101586.81
2023-03-21T01:49:29.796Z,101581.13
2023-03-21T01:52:15.282Z,101582.22
2023-03-21T01:54:45.001Z,101576.81
2023-03-21T01:57:27.817Z,101578.72
2023-03-21T02:00:12.749Z,101568.69
2023-03-21T02:02:52.330Z,101567.88
2023-03-21T02:05:25.242Z,101564.06
2023-03-21T02:07:52.783Z,101563.59
2023-03-21T02:10:19.677Z,101558.19
2023-03-21T02:12:46.323Z,101558.97
2023-03-21T02:15:13.237Z,101564.38
2023-03-21T02:17:51.832Z,101547.69
2023-03-21T02:20:30.674Z,101550.38
2023-03-21T02:22:57.594Z,101540.34
2023-03-21T02:26:08.900Z,101547.22
2023-03-21T02:28:47.498Z,101549.59
2023-03-21T02:31:41.950Z,101538.75
2023-03-21T02:34:17.591Z,101539.09
2023-03-21T02:36:53.113Z,101533.34
2023-03-21T02:39:30.633Z,101531.75
2023-03-21T02:42:06.609Z,101535.25
2023-03-21T02:44:56.086Z,101531.91
2023-03-21T02:47:29.812Z,101529.22
2023-03-21T02:50:43.655Z,101518.38
2023-03-21T02:53:13.075Z,101523.81
2023-03-21T02:55:42.466Z,101528.41
2023-03-21T02:58:13.772Z,101524.59
2023-03-21T03:00:42.833Z,101513.47
2023-03-21T03:03:12.729Z,101513.47
2023-03-21T03:05:49.283Z,101511.06
2023-03-21T03:08:52.993Z,101514.28
2023-03-21T03:11:31.386Z,101515.88
2023-03-21T03:17:12.357Z,101512.84
2023-03-21T03:20:15.434Z,101508.53
2023-03-21T03:22:54.936Z,101511.25
2023-03-21T03:25:41.616Z,101504.25
2023-03-21T03:28:10.760Z,101503.91
2023-03-21T03:30:44.948Z,101503.91
2023-03-21T03:33:17.849Z,101502.00
2023-03-21T03:35:53.057Z,101503.13
2023-03-21T03:38:27.649Z,101505.34
2023-03-21T03:41:06.861Z,101503.44
2023-03-21T03:43:41.577Z,101501.03
2023-03-21T03:46:43.046Z,101491.84
2023-03-21T03:49:15.716Z,101497.53
2023-03-21T03:51:48.224Z,101498.03
2023-03-21T03:54:21.068Z,101497.53
2023-03-21T03:56:47.936Z,101487.84
2023-03-21T03:59:25.388Z,101491.00
2023-03-21T04:01:52.027Z,101488.31
2023-03-21T04:04:18.586Z,101489.13
2023-03-21T04:06:52.042Z,101486.72
2023-03-21T04:09:22.214Z,101484.00
2023-03-21T04:11:53.314Z,101477.47
2023-03-21T04:14:20.072Z,101482.09
2023-03-21T04:16:47.200Z,101473.81
2023-03-21T04:19:15.213Z,101478.13
2023-03-21T04:21:42.624Z,101469.69
2023-03-21T04:24:09.358Z,101469.34
2023-03-21T04:26:36.282Z,101472.88
2023-03-21T04:29:03.362Z,101470.00
2023-03-21T04:31:33.925Z,101472.38
2023-03-21T04:34:03.434Z,101477.00
2023-03-21T04:36:38.684Z,101470.66
2023-03-21T04:39:12.246Z,101463.34
2023-03-21T04:41:48.656Z,101460.31
2023-03-21T04:44:16.512Z,101463.47
2023-03-21T04:46:43.520Z,101459.97
2023-03-21T04:49:10.401Z,101452.97
2023-03-21T04:51:37.419Z,101455.69
2023-03-21T04:54:04.044Z,101456.94
2023-03-21T04:56:32.629Z,101453.44
2023-03-21T04:59:00.836Z,101449.94
2023-03-21T05:01:30.911Z,101458.25
2023-03-21T05:04:02.207Z,101449.34
2023-03-21T05:06:30.088Z,101450.91
2023-03-21T05:09:01.605Z,101454.88
2023-03-21T05:11:30.813Z,101450.59
2023-03-21T05:13:58.552Z,101450.28
2023-03-21T05:16:27.022Z,101449.63
2023-03-21T05:18:55.445Z,101450.41
2023-03-21T05:21:23.238Z,101445.81
2023-03-21T05:23:55.569Z,101436.59
2023-03-21T05:26:23.057Z,101443.41
2023-03-21T05:28:50.090Z,101436.88
2023-03-21T05:31:18.226Z,101434.66
2023-03-21T05:33:45.693Z,101431.63
2023-03-21T05:36:12.396Z,101434.34
2023-03-21T05:38:42.860Z,101431.31
2023-03-21T05:41:09.362Z,101430.50
2023-03-21T05:43:35.936Z,101432.09
2023-03-21T05:46:02.457Z,101427.34
2023-03-21T05:48:29.126Z,101428.59
2023-03-21T05:50:56.704Z,101426.38
2023-03-21T05:53:23.361Z,101430.03
2023-03-21T05:55:49.946Z,101431.28
2023-03-21T05:58:16.378Z,101423.50
2023-03-21T06:00:42.895Z,101427.47
2023-03-21T06:03:09.396Z,101428.59
2023-03-21T06:05:36.349Z,101432.56
2023-03-21T06:08:02.927Z,101434.94
2023-03-21T06:10:29.478Z,101424.28
2023-03-21T06:12:55.940Z,101420.59
2023-03-21T06:15:22.466Z,101421.72
2023-03-21T06:17:48.921Z,101424.44
2023-03-21T06:20:15.731Z,101419.50
2023-03-21T06:22:42.171Z,101424.94
2023-03-21T06:25:09.294Z,101424.59
2023-03-21T06:27:36.385Z,101419.00
2023-03-21T06:30:04.521Z,101424.75
2023-03-21T06:32:31.236Z,101424.41
2023-03-21T06:34:57.815Z,101424.09
2023-03-21T06:37:24.422Z,101431.75
2023-03-21T06:39:50.984Z,101435.41
2023-03-21T06:42:17.434Z,101438.75
2023-03-21T06:44:43.863Z,101432.88
2023-03-21T06:47:10.613Z,101432.22
2023-03-21T06:49:37.142Z,101434.28
2023-03-21T06:52:03.749Z,101430.78
2023-03-21T06:54:30.855Z,101439.72
2023-03-21T06:56:57.362Z,101436.69
2023-03-21T06:59:23.914Z,101438.25
2023-03-21T07:01:50.374Z,101436.22
2023-03-21T07:04:16.875Z,101436.34
2023-03-21T07:06:43.452Z,101438.41
2023-03-21T07:09:10.043Z,101428.38
2023-03-21T07:11:37.665Z,101432.03
2023-03-21T07:14:04.786Z,101434.41
2023-03-21T07:16:31.336Z,101436.97
2023-03-21T07:18:57.824Z,101433.47
2023-03-21T07:21:24.405Z,101442.72
2023-03-21T07:23:50.881Z,101447.47
2023-03-21T07:26:18.464Z,101443.97
2023-03-21T07:28:45.793Z,101452.91
2023-03-21T07:31:14.321Z,101452.09
2023-03-21T07:33:41.088Z,101452.91
2023-03-21T07:36:12.711Z,101449.41
2023-03-21T07:38:41.096Z,101448.94
2023-03-21T07:41:07.959Z,101448.94
2023-03-21T07:43:35.349Z,101448.28
2023-03-21T07:46:03.253Z,101441.28
2023-03-21T07:48:30.248Z,101440.81
2023-03-21T07:50:56.768Z,101434.75
2023-03-21T07:53:23.381Z,101425.50
2023-03-21T07:55:56.310Z,101426.75
2023-03-21T07:58:24.222Z,101417.81
2023-03-21T08:00:51.790Z,101418.63
2023-03-21T08:03:18.372Z,101406.19
2023-03-21T08:05:45.553Z,101421.81
2023-03-21T08:08:12.429Z,101422.63
2023-03-21T08:10:38.992Z,101414.00
2023-03-21T08:13:05.592Z,101419.41
2023-03-21T08:15:32.196Z,101418.00
2023-03-21T08:18:00.260Z,101421.81
2023-03-21T08:20:27.931Z,101428.03
2023-03-21T08:22:54.609Z,101407.00
2023-03-21T08:25:22.653Z,101414.50
2023-03-21T08:27:50.718Z,101407.16
2023-03-21T08:30:20.433Z,101401.88
2023-03-21T08:32:47.456Z,101398.69
2023-03-21T08:35:16.006Z,101400.13
2023-03-21T08:37:43.095Z,101394.03
2023-03-21T08:40:13.605Z,101397.53
2023-03-21T08:42:41.302Z,101397.84
2023-03-21T08:45:09.995Z,101402.59
2023-03-21T08:47:36.869Z,101397.34
2023-03-21T08:50:06.862Z,101394.44
2023-03-21T08:52:34.000Z,101390.88
2023-03-21T08:55:02.137Z,101385.91
2023-03-21T08:57:29.265Z,101385.28
2023-03-21T08:59:55.808Z,101382.38
2023-03-21T09:02:22.360Z,101375.97
2023-03-21T09:04:49.020Z,101381.84
2023-03-21T09:07:17.983Z,101380.09
2023-03-21T09:09:45.923Z,101371.78
2023-03-21T09:12:14.384Z,101371.78
2023-03-21T09:14:41.293Z,101366.97
2023-03-21T09:17:07.834Z,101370.75
2023-03-21T09:19:35.097Z,101362.13
2023-03-21T09:22:04.981Z,101359.06
2023-03-21T09:24:31.688Z,101364.50
2023-03-21T09:26:58.501Z,101362.25
2023-03-21T09:29:25.518Z,101363.19
2023-03-21T09:31:53.528Z,101354.72
2023-03-21T09:34:20.044Z,101350.22
2023-03-21T09:36:48.334Z,101351.94
2023-03-21T09:39:16.201Z,101341.56
2023-03-21T09:42:07.609Z,101337.16
2023-03-21T09:45:12.433Z,101344.66
2023-03-21T09:47:53.166Z,101334.25
2023-03-21T09:50:33.538Z,101334.38
2023-03-21T09:53:13.913Z,101332.13
2023-03-21T09:55:41.243Z,101333.56
2023-03-21T09:58:14.453Z,101331.13
2023-03-21T10:00:45.716Z,101336.34
2023-03-21T10:03:26.134Z,101331.72
2023-03-21T10:06:01.579Z,101322.53
2023-03-21T10:08:41.429Z,101330.16
2023-03-21T10:11:08.558Z,101327.22
2023-03-21T10:13:47.777Z,101325.66
2023-03-21T10:16:29.575Z,101333.59
2023-03-21T10:18:57.220Z,101328.84
2023-03-21T10:21:56.576Z,101342.75
2023-03-21T10:24:17.449Z,101342.75
2023-03-21T10:26:45.494Z,101322.50
2023-03-21T10:29:14.925Z,101331.22
2023-03-21T10:31:42.794Z,101330.56
2023-03-21T10:34:18.901Z,101320.00
2023-03-21T10:36:46.115Z,101324.00
2023-03-21T10:39:22.561Z,101315.59
2023-03-21T10:41:49.096Z,101314.59
2023-03-21T10:44:18.092Z,101298.66
2023-03-21T10:46:59.517Z,101300.00
2023-03-21T10:49:26.712Z,101302.25
2023-03-21T10:51:57.966Z,101301.69
2023-03-21T10:54:31.315Z,101306.69
2023-03-21T10:57:03.610Z,101312.69
2023-03-21T10:59:39.186Z,101325.25
2023-03-21T11:02:06.897Z,101315.06
2023-03-21T11:04:33.761Z,101308.41
2023-03-21T11:07:09.166Z,101301.16
2023-03-21T11:09:53.773Z,101304.09
2023-03-21T11:12:37.618Z,101313.38
2023-03-21T11:15:29.269Z,101308.97
2023-03-21T11:17:56.094Z,101309.06
2023-03-21T11:20:23.086Z,101323.91
2023-03-21T11:22:50.004Z,101308.63
2023-03-21T11:25:31.439Z,101308.94
2023-03-21T11:27:57.956Z,101298.53
2023-03-21T11:30:27.292Z,101297.25
2023-03-21T11:33:01.801Z,101292.72
2023-03-21T11:35:34.343Z,101302.78
2023-03-21T11:38:00.787Z,101291.13
2023-03-21T11:40:30.126Z,101293.41
2023-03-21T11:42:59.741Z,101281.91
2023-03-21T11:45:32.884Z,101261.50
2023-03-21T11:48:01.621Z,101277.16
2023-03-21T11:50:41.500Z,101281.00
2023-03-21T11:53:33.135Z,101277.97
2023-03-21T11:56:24.230Z,101282.41
2023-03-21T11:59:01.231Z,101277.31
2023-03-21T12:01:36.445Z,101270.38
2023-03-21T12:04:24.284Z,101266.78
2023-03-21T12:07:00.667Z,101285.03
2023-03-21T12:10:05.644Z,101274.59
2023-03-21T12:12:53.494Z,101256.13
2023-03-21T12:15:31.254Z,101258.50
2023-03-21T12:18:12.908Z,101258.16
2023-03-21T12:20:52.766Z,101259.97
2023-03-21T12:23:31.136Z,101247.19
2023-03-21T12:26:03.315Z,101250.34
2023-03-21T12:28:59.207Z,101252.97
2023-03-21T12:31:36.057Z,101252.84
2023-03-21T12:34:26.019Z,101250.47
2023-03-21T12:37:03.326Z,101239.25
2023-03-21T12:39:36.345Z,101238.22
2023-03-21T12:42:05.608Z,101232.66
2023-03-21T12:44:36.463Z,101226.06
2023-03-21T12:47:07.665Z,101233.31
2023-03-21T12:50:03.547Z,101233.97
2023-03-21T12:52:41.955Z,101237.66
2023-03-21T12:55:21.437Z,101226.44
2023-03-21T12:57:57.675Z,101233.50
2023-03-21T13:00:39.801Z,101223.03
2023-03-21T13:03:30.250Z,101222.38
2023-03-21T13:06:05.991Z,101230.75
2023-03-21T13:09:00.953Z,101222.75
2023-03-21T13:11:30.287Z,101216.31
2023-03-21T13:14:03.916Z,101222.03
2023-03-21T13:16:56.006Z,101205.34
2023-03-21T13:19:36.613Z,101205.97
2023-03-21T13:22:25.746Z,101203.34
2023-03-21T13:24:59.985Z,101210.13
2023-03-21T13:27:33.764Z,101194.66
2023-03-21T13:30:00.896Z,101195.56
2023-03-21T13:32:39.992Z,101189.81
2023-03-21T13:35:09.764Z,101190.13
2023-03-21T13:37:42.060Z,101183.72
2023-03-21T13:40:25.525Z,101196.41
2023-03-21T13:42:56.919Z,101194.97
2023-03-21T13:45:25.998Z,101186.22
2023-03-21T13:47:57.282Z,101189.53
2023-03-21T13:50:47.732Z,101187.88
2023-03-21T13:53:14.137Z,101173.84
2023-03-21T13:55:46.559Z,101177.34
2023-03-21T13:58:23.427Z,101172.25
2023-03-21T14:01:27.321Z,101173.84
2023-03-21T14:04:06.393Z,101175.78
2023-03-21T14:06:56.150Z,101165.69
2023-03-21T14:09:34.188Z,101159.50
2023-03-21T14:12:07.501Z,101154.25
2023-03-21T14:14:40.479Z,101153.53
2023-03-21T14:17:15.562Z,101154.13
2023-03-21T14:19:42.062Z,101157.16
2023-03-21T14:22:13.578Z,101157.88
2023-03-21T14:24:41.211Z,101149.94
2023-03-21T14:27:08.829Z,101156.16
2023-03-21T14:29:35.757Z,101150.25
2023-03-21T14:32:03.399Z,101140.69
2023-03-21T14:34:33.428Z,101142.19
2023-03-21T14:36:59.959Z,101134.28
2023-03-21T14:39:31.280Z,101141.41
2023-03-21T14:42:05.364Z,101141.47
2023-03-21T14:44:53.966Z,101132.53
2023-03-21T14:47:24.821Z,101131.38
2023-03-21T14:49:52.222Z,101136.75
2023-03-21T14:52:25.447Z,101139.31
2023-03-21T14:54:52.665Z,101142.38
2023-03-21T14:57:22.373Z,101135.78
2023-03-21T14:59:52.700Z,101145.19
2023-03-21T15:02:23.649Z,101134.66
2023-03-21T15:04:53.362Z,101135.78
2023-03-21T15:07:34.906Z,101135.00
2023-03-21T15:10:06.531Z,101141.06
2023-03-21T15:12:33.773Z,101146.34
2023-03-21T15:15:01.775Z,101135.72
2023-03-21T15:17:29.152Z,101130.28
2023-03-21T15:19:55.637Z,101122.19
2023-03-21T15:22:46.920Z,101123.50
2023-03-21T15:25:19.473Z,101113.78
2023-03-21T15:27:46.121Z,101112.19
2023-03-21T15:30:31.057Z,101099.81
2023-03-21T15:33:05.422Z,101102.44
2023-03-21T15:35:40.133Z,101107.13
2023-03-21T15:38:07.521Z,101105.31
2023-03-21T15:40:35.411Z,101106.13
2023-03-21T15:43:20.010Z,101113.84
2023-03-21T15:45:49.157Z,101110.69
2023-03-21T15:48:16.606Z,101111.78
2023-03-21T15:50:50.763Z,101111.41
2023-03-21T15:53:19.688Z,101113.34
2023-03-21T15:55:57.757Z,101122.47
2023-03-21T15:58:27.498Z,101121.50
2023-03-21T16:00:56.323Z,101126.84
2023-03-21T16:03:27.243Z,101125.19
2023-03-21T16:06:16.803Z,101140.63
2023-03-21T16:08:45.962Z,101140.13
2023-03-21T16:11:18.215Z,101137.28
2023-03-21T16:13:45.364Z,101143.38
2023-03-21T16:16:18.700Z,101142.22
2023-03-21T16:18:45.272Z,101148.34
2023-03-21T16:21:16.983Z,101141.59
2023-03-21T16:23:43.944Z,101167.53
2023-03-21T16:26:13.839Z,101170.53
2023-03-21T16:28:40.489Z,101188.28
2023-03-21T16:31:13.131Z,101170.34
2023-03-21T16:33:39.821Z,101174.81
2023-03-21T16:36:07.013Z,101170.19
2023-03-21T16:38:33.540Z,101178.56
2023-03-21T16:41:01.860Z,101163.66
2023-03-21T16:43:28.317Z,101156.16
2023-03-21T16:45:54.755Z,101161.06
2023-03-21T16:48:21.346Z,101160.28
2023-03-21T16:50:48.139Z,101141.38
2023-03-21T16:53:14.717Z,101133.44
2023-03-21T16:55:41.824Z,101132.06
2023-03-21T16:58:08.324Z,101133.84
2023-03-21T17:00:35.097Z,101131.50
2023-03-21T17:03:12.172Z,101138.31
2023-03-21T17:05:38.680Z,101126.56
2023-03-21T17:08:05.486Z,101134.44
2023-03-21T17:10:32.932Z,101139.50
2023-03-21T17:12:59.442Z,101132.81
2023-03-21T17:15:25.931Z,101140.19
2023-03-21T17:17:55.435Z,101142.84
2023-03-21T17:20:24.017Z,101142.97
2023-03-21T17:22:51.076Z,101132.91
2023-03-21T17:25:18.861Z,101131.81
2023-03-21T17:27:46.103Z,101122.66
2023-03-21T17:30:21.331Z,101130.16
2023-03-21T17:32:49.176Z,101119.06
2023-03-21T17:35:15.813Z,101114.91
2023-03-21T17:37:42.850Z,101124.97
2023-03-21T17:40:12.716Z,101124.06
2023-03-21T17:42:40.130Z,101135.16
2023-03-21T17:45:07.318Z,101136.19
2023-03-21T17:47:35.513Z,101131.22
2023-03-21T17:50:02.590Z,101125.13
2023-03-21T17:52:29.145Z,101137.09
2023-03-21T17:54:55.750Z,101126.59
2023-03-21T17:57:22.271Z,101124.75
2023-03-21T17:59:48.724Z,101123.53
2023-03-21T18:02:15.447Z,101126.69
2023-03-21T18:04:42.085Z,101127.94
2023-03-21T18:07:16.159Z,101126.47
2023-03-21T18:09:47.420Z,101128.84
2023-03-21T18:12:13.902Z,101127.25
2023-03-21T18:14:40.811Z,101121.84
2023-03-21T18:17:07.348Z,101119.56
2023-03-21T18:19:34.024Z,101122.28
2023-03-21T18:22:02.108Z,101124.22
2023-03-21T18:24:29.442Z,101109.06
2023-03-21T18:26:56.103Z,101104.41
2023-03-21T18:32:09.254Z,101125.00
2023-03-21T18:34:38.764Z,101116.50
2023-03-21T18:37:07.993Z,101112.91
2023-03-21T18:39:36.235Z,101118.19
2023-03-21T18:42:04.804Z,101113.13
2023-03-21T18:44:38.856Z,101113.13
2023-03-21T18:47:06.959Z,101127.72
2023-03-21T18:52:20.802Z,101112.22
2023-03-21T18:54:47.716Z,101112.69
2023-03-21T18:57:34.951Z,101115.38
2023-03-21T19:00:01.423Z,101109.53
2023-03-21T19:02:28.026Z,101112.22
2023-03-21T19:04:55.496Z,101115.25
2023-03-21T19:07:22.121Z,101113.69
2023-03-21T19:10:15.997Z,101115.72
2023-03-21T19:12:35.208Z,101123.88
2023-03-21T19:15:01.666Z,101123.41
2023-03-21T19:20:16.544Z,101118.31
2023-03-21T19:22:43.772Z,101115.50
2023-03-21T19:25:12.121Z,101109.94
2023-03-21T19:27:39.143Z,101115.28
2023-03-21T19:30:14.424Z,101117.41
2023-03-21T19:32:42.364Z,101106.09
2023-03-21T19:35:09.335Z,101112.66
2023-03-21T19:37:38.486Z,101118.78
2023-03-21T19:40:06.825Z,101113.22
2023-03-21T19:42:36.121Z,101114.59
2023-03-21T19:45:04.268Z,101109.38
2023-03-21T19:47:30.866Z,101109.72
2023-03-21T19:52:43.995Z,101104.50
2023-03-21T19:55:10.907Z,101101.78
2023-03-21T19:57:37.398Z,101111.06
2023-03-21T20:00:04.822Z,101107.56
2023-03-21T20:02:36.547Z,101113.91
2023-03-21T20:05:04.825Z,101103.16
2023-03-21T20:07:32.871Z,101106.31
2023-03-21T20:09:59.804Z,101101.69
2023-03-21T20:12:27.431Z,101095.47
2023-03-21T20:15:05.636Z,101103.25
2023-03-21T20:17:38.822Z,101092.41
2023-03-21T20:20:14.879Z,101088.47
2023-03-21T20:23:05.703Z,101092.66
2023-03-21T20:25:29.411Z,101093.88
2023-03-21T20:28:12.922Z,101098.09
2023-03-21T20:30:50.277Z,101099.88
2023-03-21T20:33:17.690Z,101092.41
2023-03-21T20:38:35.728Z,101089.69
2023-03-21T20:41:05.080Z,101089.69
2023-03-21T20:46:19.890Z,101080.88
2023-03-21T20:48:49.212Z,101090.16
2023-03-21T20:54:02.579Z,101078.06
2023-03-21T20:56:30.506Z,101088.09
2023-03-21T20:59:14.642Z,101071.22
2023-03-21T21:01:43.198Z,101061.97
2023-03-21T21:04:10.216Z,101070.78
2023-03-21T21:06:36.869Z,101064.22
2023-03-21T21:09:03.914Z,101055.66
2023-03-21T21:14:16.816Z,101056.31
2023-03-21T21:16:44.178Z,101051.22
2023-03-21T21:19:10.802Z,101049.66
2023-03-21T21:21:37.464Z,101050.78
2023-03-21T21:24:07.467Z,101046.81
2023-03-21T21:26:34.897Z,101054.94
2023-03-21T21:29:01.648Z,101043.63
2023-03-21T21:31:28.435Z,101048.63
2023-03-21T21:33:55.578Z,101045.00
2023-03-21T21:36:22.716Z,101043.72
2023-03-21T21:38:49.590Z,101044.06
2023-03-21T21:41:19.703Z,101044.75
2023-03-21T21:43:47.152Z,101035.34
2023-03-21T21:46:14.471Z,101033.91
2023-03-21T21:48:41.495Z,101041.81
2023-03-21T21:51:08.332Z,101036.28
2023-03-21T21:53:36.519Z,101039.34
2023-03-21T21:56:04.231Z,101033.47
2023-03-21T21:58:33.770Z,101027.47
2023-03-21T22:01:04.468Z,101039.44
2023-03-21T22:03:40.944Z,101036.03
2023-03-21T22:06:09.488Z,101034.78
2023-03-21T22:08:36.303Z,101027.81
2023-03-21T22:11:03.920Z,101027.22
2023-03-21T22:13:30.707Z,101019.75
2023-03-21T22:15:57.361Z,101020.41
2023-03-21T22:18:23.888Z,101023.81
2023-03-21T22:20:50.487Z,101024.25
2023-03-21T22:23:19.368Z,101023.13
2023-03-21T22:25:51.675Z,101016.13
2023-03-21T22:28:22.019Z,101012.75
2023-03-21T22:30:49.286Z,101023.47
2023-03-21T22:33:15.769Z,101010.84
2023-03-21T22:35:42.347Z,101017.25
2023-03-21T22:38:08.960Z,101014.44
2023-03-21T22:40:35.496Z,101022.09
2023-03-21T22:43:02.026Z,101020.38
2023-03-21T22:45:28.486Z,101018.66
2023-03-21T22:47:55.014Z,101014.59
2023-03-21T22:50:21.517Z,101011.56
2023-03-21T22:52:47.943Z,101001.16
2023-03-21T22:55:14.445Z,101013.91
2023-03-21T22:57:40.966Z,101010.75
2023-03-21T23:00:14.539Z,101015.72
2023-03-21T23:02:41.464Z,101009.53
2023-03-21T23:05:09.913Z,101004.09
2023-03-21T23:07:36.469Z,101005.88
2023-03-21T23:10:05.083Z,101007.19
2023-03-21T23:12:31.864Z,101014.41
2023-03-21T23:14:58.357Z,101008.41
2023-03-21T23:17:25.019Z,101007.59
2023-03-21T23:19:51.479Z,101005.25
2023-03-21T23:22:17.997Z,101005.13
2023-03-21T23:24:44.459Z,100994.94
2023-03-21T23:27:10.924Z,100995.16
2023-03-21T23:29:37.408Z,100999.31
2023-03-21T23:32:04.211Z,101002.69
2023-03-21T23:34:31.539Z,101011.47
2023-03-21T23:36:58.428Z,101007.03
2023-03-21T23:39:26.413Z,101005.31
2023-03-21T23:41:52.893Z,101009.94
2023-03-21T23:44:19.339Z,100996.41
2023-03-21T23:46:45.809Z,101005.78
2023-03-21T23:49:12.276Z,101000.69
2023-03-21T23:51:38.809Z,101000.38
2023-03-21T23:54:05.333Z,100998.13
2023-03-21T23:56:32.454Z,100994.16
2023-03-21T23:58:59.353Z,100988.31
